Savannah, GA

11:48 AM EST on March 05, 2015 (GMT -0500)
Hampton Lake | Change Station
CLOSE
Current Station
Personal Weather Station
Location: Bluffton, SC
Elevation: 30 ft
Nearby Weather Stations
Active Advisory: Flood Warning Active Notice: Record Report

Elev 30 ft 32.26 °N, 80.93 °W | Updated 24 seconds ago

Mostly Cloudy
Mostly Cloudy
82.2 °F
Feels Like 83 °F
N
4.0
Wind Variable Wind from NW
Gusts 7.4 mph

Today
High -- | Low -- °F
--% Chance of Precip.
Yesterday
High -- | Low -- °F
Precip. -- in
6:47 AM 6:25 PM
Full, 100% visible
Pressure 30.02 in
Visibility 10.0 miles
Clouds Scattered Clouds 3100 ft
Scattered Clouds 4000 ft
Mostly Cloudy 25000 ft
Heat Index 83 °F
Dew Point 61 °F
Humidity 49%
Rainfall in
Snow Depth Not available.
UV 4 out of 12
Pollen 9.60 out of 12
Air Quality Not available.
Flu Activity Not available.
METAR KSAV 051553Z 20016G21KT 10SM SCT031 SCT040 BKN250 27/17 A3002 RMK AO2 PK WND 20029/1540 SLP165 T02670167

More Conditions Fewer Conditions

Pressure 30.02 in
Visibility 10.0 miles
Clouds Scattered Clouds 3100 ft
Scattered Clouds 4000 ft
Mostly Cloudy 25000 ft
Heat Index 83 °F
Dew Point 61 °F
Humidity 49%
Rainfall in
Snow Depth Not available.
UV 4 out of 12
Pollen 9.60 out of 12
Air Quality Not available.
Flu Activity Not available.
METAR KSAV 051553Z 20016G21KT 10SM SCT031 SCT040 BKN250 27/17 A3002 RMK AO2 PK WND 20029/1540 SLP165 T02670167

More Conditions Fewer Conditions

10-Day Weather Forecast

Almanac

Astronomy

Mar. 05, 2015 Rise Set
Actual Time
Civil Twilight
Nautical Twilight
Astronomical Twilight
Moon
Length of Visible Light
Length of Day
Tomorrow will be .
, % of the Moon is Illuminated

Today's Extremes

State Highs State Lows

Community

WunderPhotos

Upload Photos

1,802,851 photos uploaded!

WunderBlogs® & News

Nearby

Air Quality

  Air Quality AQ Index Pollutant
Not available.

Snow Depth

Station Depth Elevation

Earthquake Activity

City Distance Mag. Time & Date
Minimum magnitude displayed is 2.5.

Coastal Water Temperatures

Place Temperature

Nearby Weather Stations

Flood Warning
Statement as of 10:05 AM EST on March 05, 2015

The Flood Warning continues for
the Ogeechee river near Eden.
* At 9 am Thursday the stage was 12.4 feet.
* Flood stage is 11.0 feet.
* Minor flooding is occurring.
* Forecast, the river will rise to near 12.7 feet by Friday evening
then begin a slow fall.
* At 12.0 feet, water encroaches on some homes along dashers Landing
Road and Yarbrough Landing Road. Davis Landing Road also becomes
impassable.


Lat... Lon 3246 8160 3252 8152 3227 8140 3208 8133
          3206 8143 3223 8150